sensor_id;sensor_type;location;lat;lon;timestamp;P1;durP1;ratioP1;P2;durP2;ratioP2
9388;SDS011;4734;52.778;6.798;2023-09-07T00:02:36;3.50;;;2.97;;
9388;SDS011;4734;52.778;6.798;2023-09-07T00:05:22;3.10;;;2.80;;
9388;SDS011;4734;52.778;6.798;2023-09-07T00:08:07;4.50;;;3.00;;
9388;SDS011;4734;52.778;6.798;2023-09-07T00:10:53;3.25;;;2.70;;
9388;SDS011;4734;52.778;6.798;2023-09-07T00:13:40;4.57;;;3.20;;
9388;SDS011;4734;52.778;6.798;2023-09-07T00:16:25;5.38;;;2.70;;
9388;SDS011;4734;52.778;6.798;2023-09-07T00:19:11;2.95;;;2.75;;
9388;SDS011;4734;52.778;6.798;2023-09-07T00:21:56;3.45;;;2.67;;
9388;SDS011;4734;52.778;6.798;2023-09-07T00:24:42;3.75;;;2.83;;
9388;SDS011;4734;52.778;6.798;2023-09-07T00:27:27;2.72;;;2.53;;
9388;SDS011;4734;52.778;6.798;2023-09-07T00:30:14;5.78;;;3.03;;
9388;SDS011;4734;52.778;6.798;2023-09-07T00:33:00;3.30;;;3.00;;
9388;SDS011;4734;52.778;6.798;2023-09-07T00:35:45;4.93;;;2.72;;
9388;SDS011;4734;52.778;6.798;2023-09-07T00:38:31;3.50;;;2.92;;
9388;SDS011;4734;52.778;6.798;2023-09-07T00:41:16;4.50;;;3.03;;
9388;SDS011;4734;52.778;6.798;2023-09-07T00:44:02;5.88;;;2.97;;
9388;SDS011;4734;52.778;6.798;2023-09-07T00:46:49;4.00;;;3.15;;
9388;SDS011;4734;52.778;6.798;2023-09-07T00:49:35;3.75;;;2.90;;
9388;SDS011;4734;52.778;6.798;2023-09-07T00:52:21;3.47;;;3.20;;
9388;SDS011;4734;52.778;6.798;2023-09-07T00:55:06;3.08;;;2.78;;
9388;SDS011;4734;52.778;6.798;2023-09-07T00:57:53;4.53;;;3.13;;
9388;SDS011;4734;52.778;6.798;2023-09-07T01:00:40;6.53;;;3.10;;
9388;SDS011;4734;52.778;6.798;2023-09-07T01:03:27;6.38;;;3.05;;
9388;SDS011;4734;52.778;6.798;2023-09-07T01:06:14;3.58;;;3.03;;
9388;SDS011;4734;52.778;6.798;2023-09-07T01:09:04;3.95;;;3.00;;
9388;SDS011;4734;52.778;6.798;2023-09-07T01:11:56;4.05;;;3.75;;
9388;SDS011;4734;52.778;6.798;2023-09-07T01:14:41;5.00;;;3.03;;
9388;SDS011;4734;52.778;6.798;2023-09-07T01:17:28;3.38;;;3.15;;
9388;SDS011;4734;52.778;6.798;2023-09-07T01:20:15;3.40;;;3.10;;
9388;SDS011;4734;52.778;6.798;2023-09-07T01:23:03;5.90;;;3.22;;
9388;SDS011;4734;52.778;6.798;2023-09-07T01:25:49;3.72;;;3.00;;
9388;SDS011;4734;52.778;6.798;2023-09-07T01:28:35;3.90;;;3.25;;
9388;SDS011;4734;52.778;6.798;2023-09-07T01:31:21;7.32;;;3.63;;
9388;SDS011;4734;52.778;6.798;2023-09-07T01:34:07;3.85;;;3.08;;
9388;SDS011;4734;52.778;6.798;2023-09-07T01:36:53;6.47;;;3.42;;
9388;SDS011;4734;52.778;6.798;2023-09-07T01:39:40;3.42;;;3.10;;
9388;SDS011;4734;52.778;6.798;2023-09-07T01:42:25;4.28;;;3.03;;
9388;SDS011;4734;52.778;6.798;2023-09-07T01:45:11;4.05;;;3.30;;
9388;SDS011;4734;52.778;6.798;2023-09-07T01:47:57;3.78;;;3.45;;
9388;SDS011;4734;52.778;6.798;2023-09-07T01:50:43;4.60;;;3.63;;
9388;SDS011;4734;52.778;6.798;2023-09-07T01:53:29;3.58;;;3.15;;
9388;SDS011;4734;52.778;6.798;2023-09-07T01:56:16;5.13;;;3.17;;
9388;SDS011;4734;52.778;6.798;2023-09-07T01:59:02;3.88;;;3.10;;
9388;SDS011;4734;52.778;6.798;2023-09-07T02:01:47;5.40;;;3.05;;
9388;SDS011;4734;52.778;6.798;2023-09-07T02:04:33;4.00;;;3.63;;
9388;SDS011;4734;52.778;6.798;2023-09-07T02:07:18;3.67;;;3.38;;
9388;SDS011;4734;52.778;6.798;2023-09-07T02:10:04;3.33;;;3.03;;
9388;SDS011;4734;52.778;6.798;2023-09-07T02:12:52;4.18;;;3.42;;
9388;SDS011;4734;52.778;6.798;2023-09-07T02:15:37;4.72;;;3.63;;
9388;SDS011;4734;52.778;6.798;2023-09-07T02:18:23;4.65;;;3.70;;
9388;SDS011;4734;52.778;6.798;2023-09-07T02:21:09;3.25;;;3.05;;
9388;SDS011;4734;52.778;6.798;2023-09-07T02:23:54;4.28;;;3.20;;
9388;SDS011;4734;52.778;6.798;2023-09-07T02:26:40;4.03;;;3.20;;
9388;SDS011;4734;52.778;6.798;2023-09-07T02:29:30;4.65;;;3.60;;
9388;SDS011;4734;52.778;6.798;2023-09-07T02:32:15;4.25;;;3.40;;
9388;SDS011;4734;52.778;6.798;2023-09-07T02:35:01;4.50;;;3.50;;
9388;SDS011;4734;52.778;6.798;2023-09-07T02:37:47;7.18;;;3.70;;
9388;SDS011;4734;52.778;6.798;2023-09-07T02:40:38;4.13;;;3.53;;
9388;SDS011;4734;52.778;6.798;2023-09-07T02:43:25;3.55;;;3.25;;
9388;SDS011;4734;52.778;6.798;2023-09-07T02:46:12;7.10;;;3.53;;
9388;SDS011;4734;52.778;6.798;2023-09-07T02:48:58;4.20;;;3.53;;
9388;SDS011;4734;52.778;6.798;2023-09-07T02:51:43;4.97;;;3.47;;
9388;SDS011;4734;52.778;6.798;2023-09-07T02:54:29;4.50;;;4.10;;
9388;SDS011;4734;52.778;6.798;2023-09-07T02:57:14;6.60;;;3.50;;
9388;SDS011;4734;52.778;6.798;2023-09-07T03:00:01;4.25;;;3.70;;
9388;SDS011;4734;52.778;6.798;2023-09-07T03:02:54;4.05;;;3.55;;
9388;SDS011;4734;52.778;6.798;2023-09-07T03:05:39;3.28;;;3.03;;
9388;SDS011;4734;52.778;6.798;2023-09-07T03:08:25;3.30;;;3.10;;
9388;SDS011;4734;52.778;6.798;2023-09-07T03:11:11;4.40;;;4.00;;
9388;SDS011;4734;52.778;6.798;2023-09-07T03:13:56;3.90;;;3.60;;
9388;SDS011;4734;52.778;6.798;2023-09-07T03:16:42;3.47;;;3.17;;
9388;SDS011;4734;52.778;6.798;2023-09-07T03:19:29;5.75;;;3.55;;
9388;SDS011;4734;52.778;6.798;2023-09-07T03:22:15;3.63;;;3.33;;
9388;SDS011;4734;52.778;6.798;2023-09-07T03:25:01;4.32;;;3.63;;
9388;SDS011;4734;52.778;6.798;2023-09-07T03:27:46;4.40;;;3.85;;
9388;SDS011;4734;52.778;6.798;2023-09-07T03:30:32;3.92;;;3.63;;
9388;SDS011;4734;52.778;6.798;2023-09-07T03:33:17;5.35;;;4.05;;
9388;SDS011;4734;52.778;6.798;2023-09-07T03:36:04;4.22;;;3.90;;
9388;SDS011;4734;52.778;6.798;2023-09-07T03:38:50;3.63;;;3.35;;
9388;SDS011;4734;52.778;6.798;2023-09-07T03:41:35;8.48;;;3.80;;
9388;SDS011;4734;52.778;6.798;2023-09-07T03:44:21;4.38;;;4.00;;
9388;SDS011;4734;52.778;6.798;2023-09-07T03:47:07;4.18;;;3.88;;
9388;SDS011;4734;52.778;6.798;2023-09-07T03:49:53;6.38;;;3.90;;
9388;SDS011;4734;52.778;6.798;2023-09-07T03:52:39;4.43;;;3.92;;
9388;SDS011;4734;52.778;6.798;2023-09-07T03:55:25;4.53;;;4.13;;
9388;SDS011;4734;52.778;6.798;2023-09-07T03:58:11;4.50;;;4.10;;
9388;SDS011;4734;52.778;6.798;2023-09-07T04:00:58;4.97;;;4.40;;
9388;SDS011;4734;52.778;6.798;2023-09-07T04:03:44;4.90;;;4.50;;
9388;SDS011;4734;52.778;6.798;2023-09-07T04:06:29;5.95;;;4.03;;
9388;SDS011;4734;52.778;6.798;2023-09-07T04:09:16;4.60;;;4.20;;
9388;SDS011;4734;52.778;6.798;2023-09-07T04:12:02;4.85;;;4.22;;
9388;SDS011;4734;52.778;6.798;2023-09-07T04:14:48;4.60;;;4.20;;
9388;SDS011;4734;52.778;6.798;2023-09-07T04:17:34;4.93;;;4.53;;
9388;SDS011;4734;52.778;6.798;2023-09-07T04:20:23;4.57;;;4.18;;
9388;SDS011;4734;52.778;6.798;2023-09-07T04:23:10;7.47;;;4.20;;
9388;SDS011;4734;52.778;6.798;2023-09-07T04:26:05;5.28;;;4.20;;
9388;SDS011;4734;52.778;6.798;2023-09-07T04:28:51;4.70;;;4.25;;
9388;SDS011;4734;52.778;6.798;2023-09-07T04:31:37;5.20;;;4.68;;
9388;SDS011;4734;52.778;6.798;2023-09-07T04:34:22;4.88;;;4.35;;
9388;SDS011;4734;52.778;6.798;2023-09-07T04:37:08;5.20;;;4.68;;
9388;SDS011;4734;52.778;6.798;2023-09-07T04:39:54;5.03;;;3.97;;
9388;SDS011;4734;52.778;6.798;2023-09-07T04:42:41;6.40;;;4.38;;
9388;SDS011;4734;52.778;6.798;2023-09-07T04:45:26;6.68;;;4.55;;
9388;SDS011;4734;52.778;6.798;2023-09-07T04:48:12;6.25;;;4.50;;
9388;SDS011;4734;52.778;6.798;2023-09-07T04:50:58;6.90;;;4.70;;
9388;SDS011;4734;52.778;6.798;2023-09-07T04:53:43;7.10;;;5.10;;
9388;SDS011;4734;52.778;6.798;2023-09-07T04:56:29;6.38;;;4.40;;
9388;SDS011;4734;52.778;6.798;2023-09-07T04:59:16;4.82;;;4.53;;
9388;SDS011;4734;52.778;6.798;2023-09-07T05:02:01;4.03;;;3.63;;
9388;SDS011;4734;52.778;6.798;2023-09-07T05:04:47;5.10;;;4.57;;
9388;SDS011;4734;52.778;6.798;2023-09-07T05:07:33;4.80;;;4.22;;
9388;SDS011;4734;52.778;6.798;2023-09-07T05:10:19;4.68;;;4.28;;
9388;SDS011;4734;52.778;6.798;2023-09-07T05:13:05;4.90;;;4.47;;
9388;SDS011;4734;52.778;6.798;2023-09-07T05:15:52;4.60;;;4.20;;
9388;SDS011;4734;52.778;6.798;2023-09-07T05:18:40;5.07;;;4.57;;
9388;SDS011;4734;52.778;6.798;2023-09-07T05:21:26;5.28;;;4.53;;
9388;SDS011;4734;52.778;6.798;2023-09-07T05:24:12;5.70;;;4.60;;
9388;SDS011;4734;52.778;6.798;2023-09-07T05:26:59;5.30;;;4.80;;
9388;SDS011;4734;52.778;6.798;2023-09-07T05:29:44;5.47;;;4.97;;
9388;SDS011;4734;52.778;6.798;2023-09-07T05:32:31;5.57;;;5.00;;
9388;SDS011;4734;52.778;6.798;2023-09-07T05:35:16;5.88;;;4.95;;
9388;SDS011;4734;52.778;6.798;2023-09-07T05:38:02;5.28;;;4.80;;
9388;SDS011;4734;52.778;6.798;2023-09-07T05:40:48;5.32;;;4.93;;
9388;SDS011;4734;52.778;6.798;2023-09-07T05:43:37;6.00;;;5.50;;
9388;SDS011;4734;52.778;6.798;2023-09-07T05:46:23;5.88;;;5.07;;
9388;SDS011;4734;52.778;6.798;2023-09-07T05:49:10;5.88;;;5.28;;
9388;SDS011;4734;52.778;6.798;2023-09-07T05:51:55;5.75;;;5.22;;
9388;SDS011;4734;52.778;6.798;2023-09-07T05:54:41;6.88;;;4.88;;
9388;SDS011;4734;52.778;6.798;2023-09-07T05:57:26;6.70;;;5.07;;
9388;SDS011;4734;52.778;6.798;2023-09-07T06:00:12;5.82;;;4.93;;
9388;SDS011;4734;52.778;6.798;2023-09-07T06:02:59;6.22;;;5.63;;
9388;SDS011;4734;52.778;6.798;2023-09-07T06:05:46;5.97;;;5.25;;
9388;SDS011;4734;52.778;6.798;2023-09-07T06:08:32;5.80;;;5.13;;
9388;SDS011;4734;52.778;6.798;2023-09-07T06:11:17;5.68;;;5.18;;
9388;SDS011;4734;52.778;6.798;2023-09-07T06:14:03;5.82;;;5.32;;
9388;SDS011;4734;52.778;6.798;2023-09-07T06:16:48;5.68;;;5.03;;
9388;SDS011;4734;52.778;6.798;2023-09-07T06:19:34;6.28;;;5.75;;
9388;SDS011;4734;52.778;6.798;2023-09-07T06:22:21;5.93;;;5.32;;
9388;SDS011;4734;52.778;6.798;2023-09-07T06:25:06;6.30;;;5.35;;
9388;SDS011;4734;52.778;6.798;2023-09-07T06:27:52;5.88;;;5.38;;
9388;SDS011;4734;52.778;6.798;2023-09-07T06:30:38;5.90;;;5.40;;
9388;SDS011;4734;52.778;6.798;2023-09-07T06:33:23;8.40;;;5.80;;
9388;SDS011;4734;52.778;6.798;2023-09-07T06:36:08;6.20;;;5.60;;
9388;SDS011;4734;52.778;6.798;2023-09-07T06:38:55;8.68;;;5.55;;
9388;SDS011;4734;52.778;6.798;2023-09-07T06:41:41;6.22;;;5.45;;
9388;SDS011;4734;52.778;6.798;2023-09-07T06:44:26;9.88;;;5.90;;
9388;SDS011;4734;52.778;6.798;2023-09-07T06:47:12;6.45;;;5.85;;
9388;SDS011;4734;52.778;6.798;2023-09-07T06:49:58;6.30;;;5.70;;
9388;SDS011;4734;52.778;6.798;2023-09-07T06:52:43;7.78;;;5.53;;
9388;SDS011;4734;52.778;6.798;2023-09-07T06:55:30;6.78;;;5.70;;
9388;SDS011;4734;52.778;6.798;2023-09-07T06:58:15;6.35;;;5.78;;
9388;SDS011;4734;52.778;6.798;2023-09-07T07:01:01;6.50;;;5.93;;
9388;SDS011;4734;52.778;6.798;2023-09-07T07:03:48;7.85;;;6.28;;
9388;SDS011;4734;52.778;6.798;2023-09-07T07:06:33;9.75;;;5.88;;
9388;SDS011;4734;52.778;6.798;2023-09-07T07:09:19;9.40;;;6.18;;
9388;SDS011;4734;52.778;6.798;2023-09-07T07:12:06;9.57;;;5.97;;
9388;SDS011;4734;52.778;6.798;2023-09-07T07:14:52;9.80;;;6.13;;
9388;SDS011;4734;52.778;6.798;2023-09-07T07:17:38;6.80;;;6.13;;
9388;SDS011;4734;52.778;6.798;2023-09-07T07:20:24;9.80;;;6.47;;
9388;SDS011;4734;52.778;6.798;2023-09-07T07:23:09;5.85;;;5.07;;
9388;SDS011;4734;52.778;6.798;2023-09-07T07:25:56;6.95;;;6.25;;
9388;SDS011;4734;52.778;6.798;2023-09-07T07:28:43;6.03;;;5.35;;
9388;SDS011;4734;52.778;6.798;2023-09-07T07:31:28;7.25;;;5.38;;
9388;SDS011;4734;52.778;6.798;2023-09-07T07:34:14;6.35;;;5.30;;
9388;SDS011;4734;52.778;6.798;2023-09-07T07:36:59;9.43;;;5.25;;
9388;SDS011;4734;52.778;6.798;2023-09-07T07:39:45;7.45;;;5.25;;
9388;SDS011;4734;52.778;6.798;2023-09-07T07:42:30;5.90;;;5.32;;
9388;SDS011;4734;52.778;6.798;2023-09-07T07:45:17;5.32;;;4.85;;
9388;SDS011;4734;52.778;6.798;2023-09-07T07:48:05;6.03;;;5.15;;
9388;SDS011;4734;52.778;6.798;2023-09-07T07:50:51;7.63;;;4.60;;
9388;SDS011;4734;52.778;6.798;2023-09-07T07:53:37;4.80;;;4.40;;
9388;SDS011;4734;52.778;6.798;2023-09-07T07:56:23;5.43;;;4.93;;
9388;SDS011;4734;52.778;6.798;2023-09-07T07:59:08;9.73;;;4.72;;
9388;SDS011;4734;52.778;6.798;2023-09-07T08:01:55;5.53;;;4.88;;
9388;SDS011;4734;52.778;6.798;2023-09-07T08:04:40;5.13;;;4.65;;
9388;SDS011;4734;52.778;6.798;2023-09-07T08:07:26;7.53;;;4.47;;
9388;SDS011;4734;52.778;6.798;2023-09-07T08:10:12;4.80;;;4.40;;
9388;SDS011;4734;52.778;6.798;2023-09-07T08:12:57;6.32;;;4.50;;
9388;SDS011;4734;52.778;6.798;2023-09-07T08:15:43;5.75;;;4.45;;
9388;SDS011;4734;52.778;6.798;2023-09-07T08:18:31;4.50;;;4.10;;
9388;SDS011;4734;52.778;6.798;2023-09-07T08:21:17;5.90;;;3.92;;
9388;SDS011;4734;52.778;6.798;2023-09-07T08:24:03;5.30;;;4.18;;
9388;SDS011;4734;52.778;6.798;2023-09-07T08:26:49;4.78;;;4.18;;
9388;SDS011;4734;52.778;6.798;2023-09-07T08:29:37;4.43;;;3.80;;
9388;SDS011;4734;52.778;6.798;2023-09-07T08:32:23;6.70;;;3.90;;
9388;SDS011;4734;52.778;6.798;2023-09-07T08:35:10;6.45;;;4.07;;
9388;SDS011;4734;52.778;6.798;2023-09-07T08:37:56;5.88;;;4.57;;
9388;SDS011;4734;52.778;6.798;2023-09-07T08:40:45;5.68;;;3.95;;
9388;SDS011;4734;52.778;6.798;2023-09-07T08:43:31;6.57;;;4.60;;
9388;SDS011;4734;52.778;6.798;2023-09-07T08:46:18;6.70;;;4.10;;
9388;SDS011;4734;52.778;6.798;2023-09-07T08:49:05;5.95;;;3.95;;
9388;SDS011;4734;52.778;6.798;2023-09-07T08:51:52;4.88;;;3.65;;
9388;SDS011;4734;52.778;6.798;2023-09-07T08:54:41;6.20;;;3.88;;
9388;SDS011;4734;52.778;6.798;2023-09-07T08:57:27;4.40;;;4.00;;
9388;SDS011;4734;52.778;6.798;2023-09-07T09:00:15;6.38;;;4.20;;
9388;SDS011;4734;52.778;6.798;2023-09-07T09:03:02;4.32;;;3.70;;
9388;SDS011;4734;52.778;6.798;2023-09-07T09:05:48;7.30;;;4.10;;
9388;SDS011;4734;52.778;6.798;2023-09-07T09:08:43;6.20;;;4.13;;
9388;SDS011;4734;52.778;6.798;2023-09-07T09:11:31;5.30;;;3.35;;
9388;SDS011;4734;52.778;6.798;2023-09-07T09:14:16;3.97;;;3.60;;
9388;SDS011;4734;52.778;6.798;2023-09-07T09:17:02;4.43;;;3.53;;
9388;SDS011;4734;52.778;6.798;2023-09-07T09:19:48;3.70;;;3.40;;
9388;SDS011;4734;52.778;6.798;2023-09-07T09:22:33;4.50;;;3.83;;
9388;SDS011;4734;52.778;6.798;2023-09-07T09:25:21;3.70;;;3.40;;
9388;SDS011;4734;52.778;6.798;2023-09-07T09:28:08;4.55;;;3.67;;
9388;SDS011;4734;52.778;6.798;2023-09-07T09:30:54;4.50;;;3.47;;
9388;SDS011;4734;52.778;6.798;2023-09-07T09:33:40;3.72;;;3.42;;
9388;SDS011;4734;52.778;6.798;2023-09-07T09:36:32;3.50;;;3.20;;
9388;SDS011;4734;52.778;6.798;2023-09-07T09:39:21;5.70;;;3.80;;
9388;SDS011;4734;52.778;6.798;2023-09-07T09:42:10;4.10;;;3.70;;
9388;SDS011;4734;52.778;6.798;2023-09-07T09:44:56;8.27;;;4.03;;
9388;SDS011;4734;52.778;6.798;2023-09-07T09:47:43;3.83;;;3.53;;
9388;SDS011;4734;52.778;6.798;2023-09-07T09:50:29;3.95;;;3.42;;
9388;SDS011;4734;52.778;6.798;2023-09-07T09:53:15;4.22;;;3.83;;
9388;SDS011;4734;52.778;6.798;2023-09-07T09:56:02;4.63;;;3.42;;
9388;SDS011;4734;52.778;6.798;2023-09-07T09:58:50;4.55;;;3.53;;
9388;SDS011;4734;52.778;6.798;2023-09-07T10:01:40;3.90;;;3.55;;
9388;SDS011;4734;52.778;6.798;2023-09-07T10:04:46;3.75;;;3.40;;
9388;SDS011;4734;52.778;6.798;2023-09-07T10:07:40;3.83;;;3.47;;
9388;SDS011;4734;52.778;6.798;2023-09-07T10:10:31;3.85;;;3.55;;
9388;SDS011;4734;52.778;6.798;2023-09-07T10:13:28;8.10;;;3.70;;
9388;SDS011;4734;52.778;6.798;2023-09-07T10:16:16;6.35;;;3.53;;
9388;SDS011;4734;52.778;6.798;2023-09-07T10:19:06;5.72;;;3.80;;
9388;SDS011;4734;52.778;6.798;2023-09-07T10:22:02;4.20;;;3.65;;
9388;SDS011;4734;52.778;6.798;2023-09-07T10:24:56;5.60;;;3.95;;
9388;SDS011;4734;52.778;6.798;2023-09-07T10:27:42;4.20;;;3.78;;
9388;SDS011;4734;52.778;6.798;2023-09-07T10:30:28;3.38;;;3.08;;
9388;SDS011;4734;52.778;6.798;2023-09-07T10:33:21;4.32;;;3.42;;
9388;SDS011;4734;52.778;6.798;2023-09-07T10:36:08;3.65;;;3.42;;
9388;SDS011;4734;52.778;6.798;2023-09-07T10:39:04;5.03;;;3.28;;
9388;SDS011;4734;52.778;6.798;2023-09-07T10:41:51;4.10;;;3.70;;
9388;SDS011;4734;52.778;6.798;2023-09-07T10:44:37;3.97;;;3.60;;
9388;SDS011;4734;52.778;6.798;2023-09-07T10:47:22;3.72;;;3.33;;
9388;SDS011;4734;52.778;6.798;2023-09-07T10:50:10;3.78;;;3.08;;
9388;SDS011;4734;52.778;6.798;2023-09-07T10:52:56;5.97;;;3.70;;
9388;SDS011;4734;52.778;6.798;2023-09-07T10:55:42;4.28;;;3.63;;
9388;SDS011;4734;52.778;6.798;2023-09-07T10:58:29;4.78;;;3.83;;
9388;SDS011;4734;52.778;6.798;2023-09-07T11:01:15;4.00;;;3.50;;
9388;SDS011;4734;52.778;6.798;2023-09-07T11:04:01;3.38;;;3.10;;
9388;SDS011;4734;52.778;6.798;2023-09-07T11:06:50;4.00;;;3.53;;
9388;SDS011;4734;52.778;6.798;2023-09-07T11:09:39;3.85;;;3.55;;
9388;SDS011;4734;52.778;6.798;2023-09-07T11:12:25;6.03;;;3.50;;
9388;SDS011;4734;52.778;6.798;2023-09-07T11:15:11;3.65;;;3.35;;
9388;SDS011;4734;52.778;6.798;2023-09-07T11:17:56;3.83;;;3.50;;
9388;SDS011;4734;52.778;6.798;2023-09-07T11:20:42;4.38;;;3.58;;
9388;SDS011;4734;52.778;6.798;2023-09-07T11:23:29;3.97;;;3.67;;
9388;SDS011;4734;52.778;6.798;2023-09-07T11:26:21;7.05;;;3.50;;
9388;SDS011;4734;52.778;6.798;2023-09-07T11:29:07;5.50;;;3.70;;
9388;SDS011;4734;52.778;6.798;2023-09-07T11:31:52;5.25;;;3.70;;
9388;SDS011;4734;52.778;6.798;2023-09-07T11:34:46;3.80;;;3.45;;
9388;SDS011;4734;52.778;6.798;2023-09-07T11:37:33;4.25;;;3.60;;
9388;SDS011;4734;52.778;6.798;2023-09-07T11:40:20;4.03;;;3.42;;
9388;SDS011;4734;52.778;6.798;2023-09-07T11:43:06;4.40;;;3.67;;
9388;SDS011;4734;52.778;6.798;2023-09-07T11:45:52;3.33;;;3.08;;
9388;SDS011;4734;52.778;6.798;2023-09-07T11:48:37;4.07;;;3.70;;
9388;SDS011;4734;52.778;6.798;2023-09-07T11:51:23;4.25;;;3.28;;
9388;SDS011;4734;52.778;6.798;2023-09-07T11:54:08;4.95;;;3.58;;
9388;SDS011;4734;52.778;6.798;2023-09-07T11:56:55;4.45;;;3.15;;
9388;SDS011;4734;52.778;6.798;2023-09-07T11:59:41;3.72;;;3.25;;
9388;SDS011;4734;52.778;6.798;2023-09-07T12:02:26;5.72;;;3.50;;
9388;SDS011;4734;52.778;6.798;2023-09-07T12:05:12;4.75;;;3.85;;
9388;SDS011;4734;52.778;6.798;2023-09-07T12:07:59;5.65;;;3.40;;
9388;SDS011;4734;52.778;6.798;2023-09-07T12:10:44;3.60;;;3.30;;
9388;SDS011;4734;52.778;6.798;2023-09-07T12:13:31;10.88;;;3.75;;
9388;SDS011;4734;52.778;6.798;2023-09-07T12:16:17;7.85;;;3.70;;
9388;SDS011;4734;52.778;6.798;2023-09-07T12:19:02;3.50;;;3.20;;
9388;SDS011;4734;52.778;6.798;2023-09-07T12:21:48;3.70;;;3.30;;
9388;SDS011;4734;52.778;6.798;2023-09-07T12:24:34;3.90;;;3.47;;
9388;SDS011;4734;52.778;6.798;2023-09-07T12:27:19;3.92;;;3.53;;
9388;SDS011;4734;52.778;6.798;2023-09-07T12:30:07;4.00;;;3.60;;
9388;SDS011;4734;52.778;6.798;2023-09-07T12:32:56;8.23;;;3.95;;
9388;SDS011;4734;52.778;6.798;2023-09-07T12:35:41;3.72;;;3.42;;
9388;SDS011;4734;52.778;6.798;2023-09-07T12:38:27;3.20;;;3.00;;
9388;SDS011;4734;52.778;6.798;2023-09-07T12:41:13;4.35;;;3.20;;
9388;SDS011;4734;52.778;6.798;2023-09-07T12:43:59;5.13;;;2.97;;
9388;SDS011;4734;52.778;6.798;2023-09-07T12:46:46;5.45;;;3.05;;
9388;SDS011;4734;52.778;6.798;2023-09-07T12:49:31;5.20;;;3.50;;
9388;SDS011;4734;52.778;6.798;2023-09-07T12:52:17;3.53;;;3.22;;
9388;SDS011;4734;52.778;6.798;2023-09-07T12:55:03;5.05;;;3.30;;
9388;SDS011;4734;52.778;6.798;2023-09-07T12:57:49;4.20;;;3.00;;
9388;SDS011;4734;52.778;6.798;2023-09-07T13:00:35;8.82;;;3.50;;
9388;SDS011;4734;52.778;6.798;2023-09-07T13:03:22;3.80;;;3.50;;
9388;SDS011;4734;52.778;6.798;2023-09-07T13:06:07;5.10;;;3.28;;
9388;SDS011;4734;52.778;6.798;2023-09-07T13:08:52;5.70;;;3.22;;
9388;SDS011;4734;52.778;6.798;2023-09-07T13:11:38;5.00;;;3.30;;
9388;SDS011;4734;52.778;6.798;2023-09-07T13:14:23;5.30;;;3.10;;
9388;SDS011;4734;52.778;6.798;2023-09-07T13:17:11;5.53;;;3.30;;
9388;SDS011;4734;52.778;6.798;2023-09-07T13:19:59;3.20;;;2.85;;
9388;SDS011;4734;52.778;6.798;2023-09-07T13:22:44;3.13;;;2.83;;
9388;SDS011;4734;52.778;6.798;2023-09-07T13:25:31;4.03;;;3.15;;
9388;SDS011;4734;52.778;6.798;2023-09-07T13:28:16;4.90;;;2.90;;
9388;SDS011;4734;52.778;6.798;2023-09-07T13:31:02;4.90;;;2.92;;
9388;SDS011;4734;52.778;6.798;2023-09-07T13:33:48;5.95;;;3.33;;
9388;SDS011;4734;52.778;6.798;2023-09-07T13:36:35;4.38;;;3.00;;
9388;SDS011;4734;52.778;6.798;2023-09-07T13:39:21;4.05;;;3.30;;
9388;SDS011;4734;52.778;6.798;2023-09-07T13:42:06;7.15;;;3.13;;
9388;SDS011;4734;52.778;6.798;2023-09-07T13:44:52;4.68;;;3.63;;
9388;SDS011;4734;52.778;6.798;2023-09-07T13:47:38;4.80;;;2.97;;
9388;SDS011;4734;52.778;6.798;2023-09-07T13:50:23;4.13;;;3.28;;
9388;SDS011;4734;52.778;6.798;2023-09-07T13:53:10;5.72;;;3.45;;
9388;SDS011;4734;52.778;6.798;2023-09-07T13:55:55;3.03;;;2.83;;
9388;SDS011;4734;52.778;6.798;2023-09-07T13:58:41;10.75;;;3.30;;
9388;SDS011;4734;52.778;6.798;2023-09-07T14:01:28;4.07;;;3.35;;
9388;SDS011;4734;52.778;6.798;2023-09-07T14:04:14;3.17;;;2.97;;
9388;SDS011;4734;52.778;6.798;2023-09-07T14:07:00;3.08;;;2.78;;
9388;SDS011;4734;52.778;6.798;2023-09-07T14:09:46;6.78;;;3.53;;
9388;SDS011;4734;52.778;6.798;2023-09-07T14:12:32;3.58;;;3.13;;
9388;SDS011;4734;52.778;6.798;2023-09-07T14:15:18;3.17;;;2.97;;
9388;SDS011;4734;52.778;6.798;2023-09-07T14:18:04;4.63;;;3.17;;
9388;SDS011;4734;52.778;6.798;2023-09-07T14:20:49;4.88;;;3.30;;
9388;SDS011;4734;52.778;6.798;2023-09-07T14:23:35;3.67;;;3.38;;
9388;SDS011;4734;52.778;6.798;2023-09-07T14:26:23;3.65;;;2.97;;
9388;SDS011;4734;52.778;6.798;2023-09-07T14:29:08;3.75;;;3.00;;
9388;SDS011;4734;52.778;6.798;2023-09-07T14:31:54;3.80;;;3.50;;
9388;SDS011;4734;52.778;6.798;2023-09-07T14:34:39;4.72;;;3.05;;
9388;SDS011;4734;52.778;6.798;2023-09-07T14:37:25;3.08;;;2.78;;
9388;SDS011;4734;52.778;6.798;2023-09-07T14:40:10;4.70;;;3.35;;
9388;SDS011;4734;52.778;6.798;2023-09-07T14:42:58;3.08;;;2.88;;
9388;SDS011;4734;52.778;6.798;2023-09-07T14:45:43;3.42;;;3.10;;
9388;SDS011;4734;52.778;6.798;2023-09-07T14:48:29;7.13;;;3.42;;
9388;SDS011;4734;52.778;6.798;2023-09-07T14:51:14;3.50;;;3.20;;
9388;SDS011;4734;52.778;6.798;2023-09-07T14:54:00;3.70;;;3.10;;
9388;SDS011;4734;52.778;6.798;2023-09-07T14:56:46;4.55;;;2.95;;
9388;SDS011;4734;52.778;6.798;2023-09-07T14:59:33;5.93;;;3.03;;
9388;SDS011;4734;52.778;6.798;2023-09-07T15:02:18;3.42;;;3.13;;
9388;SDS011;4734;52.778;6.798;2023-09-07T15:05:04;5.47;;;3.10;;
9388;SDS011;4734;52.778;6.798;2023-09-07T15:07:50;6.85;;;3.25;;
9388;SDS011;4734;52.778;6.798;2023-09-07T15:10:36;4.35;;;2.97;;
9388;SDS011;4734;52.778;6.798;2023-09-07T15:13:21;4.82;;;2.83;;
9388;SDS011;4734;52.778;6.798;2023-09-07T15:16:08;4.93;;;3.00;;
9388;SDS011;4734;52.778;6.798;2023-09-07T15:18:54;3.83;;;2.85;;
9388;SDS011;4734;52.778;6.798;2023-09-07T15:21:40;3.08;;;2.88;;
9388;SDS011;4734;52.778;6.798;2023-09-07T15:24:25;4.13;;;3.20;;
9388;SDS011;4734;52.778;6.798;2023-09-07T15:27:11;3.28;;;2.97;;
9388;SDS011;4734;52.778;6.798;2023-09-07T15:29:58;5.47;;;3.10;;
9388;SDS011;4734;52.778;6.798;2023-09-07T15:32:44;3.38;;;2.95;;
9388;SDS011;4734;52.778;6.798;2023-09-07T15:35:30;3.15;;;2.85;;
9388;SDS011;4734;52.778;6.798;2023-09-07T15:38:16;3.38;;;3.17;;
9388;SDS011;4734;52.778;6.798;2023-09-07T15:41:03;3.92;;;3.20;;
9388;SDS011;4734;52.778;6.798;2023-09-07T15:43:49;3.25;;;2.97;;
9388;SDS011;4734;52.778;6.798;2023-09-07T15:46:35;3.50;;;3.25;;
9388;SDS011;4734;52.778;6.798;2023-09-07T15:49:22;3.40;;;3.08;;
9388;SDS011;4734;52.778;6.798;2023-09-07T15:52:08;3.60;;;3.30;;
9388;SDS011;4734;52.778;6.798;2023-09-07T15:54:54;3.35;;;3.15;;
9388;SDS011;4734;52.778;6.798;2023-09-07T15:57:40;4.05;;;3.30;;
9388;SDS011;4734;52.778;6.798;2023-09-07T16:00:26;3.95;;;3.30;;
9388;SDS011;4734;52.778;6.798;2023-09-07T16:03:11;6.85;;;3.28;;
9388;SDS011;4734;52.778;6.798;2023-09-07T16:05:59;4.13;;;3.40;;
9388;SDS011;4734;52.778;6.798;2023-09-07T16:08:45;5.32;;;3.10;;
9388;SDS011;4734;52.778;6.798;2023-09-07T16:11:31;4.00;;;3.38;;
9388;SDS011;4734;52.778;6.798;2023-09-07T16:14:17;7.78;;;3.40;;
9388;SDS011;4734;52.778;6.798;2023-09-07T16:17:02;3.33;;;3.08;;
9388;SDS011;4734;52.778;6.798;2023-09-07T16:19:48;3.80;;;3.50;;
9388;SDS011;4734;52.778;6.798;2023-09-07T16:22:37;5.47;;;3.20;;
9388;SDS011;4734;52.778;6.798;2023-09-07T16:25:22;5.05;;;3.60;;
9388;SDS011;4734;52.778;6.798;2023-09-07T16:28:08;3.63;;;3.13;;
9388;SDS011;4734;52.778;6.798;2023-09-07T16:30:53;3.40;;;3.10;;
9388;SDS011;4734;52.778;6.798;2023-09-07T16:33:39;4.88;;;3.30;;
9388;SDS011;4734;52.778;6.798;2023-09-07T16:36:25;6.38;;;3.10;;
9388;SDS011;4734;52.778;6.798;2023-09-07T16:39:11;3.28;;;2.97;;
9388;SDS011;4734;52.778;6.798;2023-09-07T16:41:57;3.60;;;3.30;;
9388;SDS011;4734;52.778;6.798;2023-09-07T16:44:42;3.30;;;3.08;;
9388;SDS011;4734;52.778;6.798;2023-09-07T16:47:28;3.20;;;3.00;;
9388;SDS011;4734;52.778;6.798;2023-09-07T16:50:13;4.97;;;3.30;;
9388;SDS011;4734;52.778;6.798;2023-09-07T16:52:59;3.60;;;3.30;;
9388;SDS011;4734;52.778;6.798;2023-09-07T16:55:46;4.82;;;2.97;;
9388;SDS011;4734;52.778;6.798;2023-09-07T16:58:32;4.35;;;3.40;;
9388;SDS011;4734;52.778;6.798;2023-09-07T17:01:19;4.10;;;3.30;;
9388;SDS011;4734;52.778;6.798;2023-09-07T17:04:05;4.47;;;2.90;;
9388;SDS011;4734;52.778;6.798;2023-09-07T17:06:50;4.18;;;3.47;;
9388;SDS011;4734;52.778;6.798;2023-09-07T17:09:36;3.95;;;3.15;;
9388;SDS011;4734;52.778;6.798;2023-09-07T17:12:23;3.60;;;3.30;;
9388;SDS011;4734;52.778;6.798;2023-09-07T17:15:09;3.63;;;3.33;;